Terminal Aerodrome Forecast
Issued by NWS Sioux Falls, SD

Home | Current Version | Previous Version | Graphics & Text | Print | Product List | Glossary Off
Versions: 1 2 3 4 5 6 7 8 9 10 11 12 13 14 15 16 17 18 19

000
FTUS43 KFSD 091700
TAFFSD
TAF
KFSD 091730Z 0918/1018 30007KT P6SM FEW040
     FM092100 35007KT P6SM SCT060
     FM100200 05005KT P6SM SKC
     FM100700 10005KT P6SM SCT120
     FM101500 15013G19KT P6SM SCT120=

USA.gov is the U.S. government's official web portal to all federal, state and local government web resources and services.